NKS2254 KFLL-KEWR
Flight info
| Callsign | NKS2254 |
|---|---|
| Flight time | N/A |
| Altitude | 35000 |
| Route | FEALX2 ETECK GRUBR Y299 SEELO GARIC Q129 AARNN QUART PHLBO4 |
| Aircraft | A319/M-SDE3FGHIRWY/LB1 |
Departure
| Time | N/A |
|---|---|
| Airport | Fort Lauderdale Hollywood International Airport (KFLL) |
Arrival
| Time | 2026-05-04 00:41 |
|---|---|
| Airport | Newark Liberty International Airport (KEWR) |
| Time | Latitude | Longitude | Altitude | Speed | Heading |
|---|---|---|---|---|---|
| 2026-05-04 00:14 | 39.71105 | -75.56771 | 34071 ft | 515 kts | 35° |
| 2026-05-04 00:15 | 39.73736 | -75.53606 | 33291 ft | 515 kts | 35° |
| 2026-05-04 00:15 | 39.76355 | -75.50443 | 32528 ft | 513 kts | 35° |
| 2026-05-04 00:15 | 39.78952 | -75.47298 | 31716 ft | 508 kts | 35° |
| 2026-05-04 00:15 | 39.81492 | -75.44220 | 30987 ft | 503 kts | 35° |
| 2026-05-04 00:16 | 39.84037 | -75.41135 | 30408 ft | 496 kts | 35° |
| 2026-05-04 00:16 | 39.86547 | -75.38092 | 29793 ft | 489 kts | 35° |
| 2026-05-04 00:16 | 39.89020 | -75.35092 | 29106 ft | 483 kts | 35° |
| 2026-05-04 00:16 | 39.91463 | -75.32127 | 28411 ft | 477 kts | 35° |
| 2026-05-04 00:17 | 39.93875 | -75.29196 | 27716 ft | 472 kts | 36° |
| 2026-05-04 00:17 | 39.96266 | -75.26292 | 27042 ft | 467 kts | 36° |
| 2026-05-04 00:17 | 39.98626 | -75.23427 | 26404 ft | 461 kts | 36° |
| 2026-05-04 00:17 | 40.00960 | -75.20596 | 25752 ft | 456 kts | 36° |
| 2026-05-04 00:18 | 40.03269 | -75.17784 | 25114 ft | 451 kts | 37° |
| 2026-05-04 00:18 | 40.05547 | -75.14998 | 24489 ft | 447 kts | 37° |
| 2026-05-04 00:18 | 40.07801 | -75.12239 | 23873 ft | 442 kts | 37° |
| 2026-05-04 00:18 | 40.10032 | -75.09508 | 23197 ft | 438 kts | 38° |
| 2026-05-04 00:19 | 40.12243 | -75.06801 | 22499 ft | 433 kts | 38° |
| 2026-05-04 00:19 | 40.14431 | -75.04126 | 21822 ft | 429 kts | 38° |
| 2026-05-04 00:19 | 40.16606 | -75.01475 | 21187 ft | 424 kts | 38° |
| 2026-05-04 00:19 | 40.18754 | -74.98855 | 20559 ft | 419 kts | 38° |
| 2026-05-04 00:20 | 40.20871 | -74.96263 | 20088 ft | 415 kts | 38° |
| 2026-05-04 00:20 | 40.22980 | -74.93673 | 19879 ft | 415 kts | 38° |
| 2026-05-04 00:20 | 40.25093 | -74.91074 | 19030 ft | 420 kts | 39° |
| 2026-05-04 00:20 | 40.27159 | -74.88405 | 18706 ft | 410 kts | 41° |
| 2026-05-04 00:21 | 40.29078 | -74.85762 | 18165 ft | 403 kts | 43° |
| 2026-05-04 00:21 | 40.30913 | -74.83139 | 17485 ft | 398 kts | 43° |
| 2026-05-04 00:21 | 40.32680 | -74.80585 | 16830 ft | 392 kts | 43° |
| 2026-05-04 00:21 | 40.34499 | -74.77956 | 16181 ft | 386 kts | 43° |
| 2026-05-04 00:22 | 40.36271 | -74.75410 | 15566 ft | 378 kts | 43° |
| 2026-05-04 00:22 | 40.38037 | -74.72896 | 14920 ft | 371 kts | 42° |
| 2026-05-04 00:22 | 40.39777 | -74.70440 | 14276 ft | 365 kts | 42° |
| 2026-05-04 00:22 | 40.41564 | -74.68141 | 13624 ft | 353 kts | 32° |
| 2026-05-04 00:23 | 40.43674 | -74.66663 | 12934 ft | 338 kts | 13° |
| 2026-05-04 00:23 | 40.45892 | -74.66015 | 12746 ft | 316 kts | 7° |
| 2026-05-04 00:23 | 40.47963 | -74.65463 | 12608 ft | 298 kts | 7° |
| 2026-05-04 00:23 | 40.49936 | -74.64924 | 12438 ft | 282 kts | 7° |
| 2026-05-04 00:24 | 40.51834 | -74.64408 | 12041 ft | 276 kts | 7° |
| 2026-05-04 00:24 | 40.53700 | -74.63906 | 11585 ft | 273 kts | 6° |
| 2026-05-04 00:24 | 40.55546 | -74.63408 | 11083 ft | 269 kts | 6° |
| 2026-05-04 00:24 | 40.57371 | -74.62917 | 10566 ft | 267 kts | 6° |
| 2026-05-04 00:25 | 40.59188 | -74.62430 | 10060 ft | 265 kts | 6° |
| 2026-05-04 00:25 | 40.60992 | -74.61948 | 9514 ft | 264 kts | 6° |
| 2026-05-04 00:25 | 40.62786 | -74.61470 | 8945 ft | 263 kts | 6° |
| 2026-05-04 00:25 | 40.64584 | -74.60988 | 8491 ft | 263 kts | 6° |
| 2026-05-04 00:26 | 40.66377 | -74.60505 | 8108 ft | 263 kts | 6° |
| 2026-05-04 00:26 | 40.68158 | -74.60028 | 7991 ft | 262 kts | 6° |
| 2026-05-04 00:26 | 40.69957 | -74.59548 | 8004 ft | 264 kts | 6° |
| 2026-05-04 00:26 | 40.71761 | -74.59067 | 8003 ft | 264 kts | 6° |
| 2026-05-04 00:27 | 40.73561 | -74.58580 | 8015 ft | 264 kts | 6° |
| 2026-05-04 00:27 | 40.75360 | -74.58094 | 8002 ft | 264 kts | 6° |
| 2026-05-04 00:27 | 40.77160 | -74.57621 | 7998 ft | 264 kts | 5° |
| 2026-05-04 00:27 | 40.78958 | -74.57142 | 8010 ft | 264 kts | 6° |
| 2026-05-04 00:28 | 40.80756 | -74.56646 | 8010 ft | 264 kts | 6° |
| 2026-05-04 00:28 | 40.82559 | -74.56134 | 8015 ft | 264 kts | 6° |
| 2026-05-04 00:28 | 40.84352 | -74.55613 | 8012 ft | 264 kts | 7° |
| 2026-05-04 00:28 | 40.86148 | -74.55081 | 8015 ft | 265 kts | 7° |
| 2026-05-04 00:29 | 40.87945 | -74.54546 | 8014 ft | 265 kts | 7° |
| 2026-05-04 00:29 | 40.89746 | -74.54008 | 8014 ft | 265 kts | 7° |
| 2026-05-04 00:29 | 40.91541 | -74.53471 | 8007 ft | 265 kts | 7° |
| 2026-05-04 00:29 | 40.93317 | -74.52768 | 8005 ft | 272 kts | 19° |
| 2026-05-04 00:30 | 40.94813 | -74.51172 | 8006 ft | 286 kts | 47° |
| 2026-05-04 00:30 | 40.95655 | -74.48736 | 8014 ft | 299 kts | 72° |
| 2026-05-04 00:30 | 40.96016 | -74.46001 | 8013 ft | 302 kts | 77° |
| 2026-05-04 00:30 | 40.96315 | -74.43249 | 7933 ft | 301 kts | 78° |
| 2026-05-04 00:31 | 40.96608 | -74.40513 | 7505 ft | 299 kts | 78° |
| 2026-05-04 00:31 | 40.96905 | -74.37799 | 7044 ft | 297 kts | 78° |
| 2026-05-04 00:31 | 40.97211 | -74.35099 | 6590 ft | 296 kts | 78° |
| 2026-05-04 00:31 | 40.97522 | -74.32410 | 6130 ft | 294 kts | 78° |
| 2026-05-04 00:32 | 40.97832 | -74.29755 | 5620 ft | 291 kts | 77° |
| 2026-05-04 00:32 | 40.98138 | -74.27117 | 5146 ft | 290 kts | 78° |
| 2026-05-04 00:32 | 40.98179 | -74.24472 | 4998 ft | 286 kts | 98° |
| 2026-05-04 00:32 | 40.97516 | -74.22076 | 5010 ft | 272 kts | 122° |
| 2026-05-04 00:33 | 40.96352 | -74.20194 | 5007 ft | 256 kts | 135° |
| 2026-05-04 00:33 | 40.94084 | -74.16931 | 5011 ft | 232 kts | 135° |
| 2026-05-04 00:33 | 40.92989 | -74.15362 | 5015 ft | 231 kts | 135° |
| 2026-05-04 00:34 | 40.91898 | -74.13800 | 5014 ft | 231 kts | 135° |
| 2026-05-04 00:34 | 40.90806 | -74.12238 | 5009 ft | 231 kts | 135° |
| 2026-05-04 00:34 | 40.89705 | -74.10665 | 4586 ft | 236 kts | 135° |
| 2026-05-04 00:34 | 40.88571 | -74.09094 | 4242 ft | 232 kts | 141° |
| 2026-05-04 00:35 | 40.87250 | -74.07966 | 4118 ft | 222 kts | 161° |
| 2026-05-04 00:35 | 40.85796 | -74.07439 | 4027 ft | 213 kts | 180° |
| 2026-05-04 00:35 | 40.84343 | -74.07487 | 3934 ft | 206 kts | 197° |
| 2026-05-04 00:35 | 40.82991 | -74.08019 | 3842 ft | 201 kts | 207° |
| 2026-05-04 00:36 | 40.81684 | -74.08638 | 3739 ft | 201 kts | 207° |
| 2026-05-04 00:36 | 40.80349 | -74.09132 | 3596 ft | 198 kts | 196° |
| 2026-05-04 00:36 | 40.78945 | -74.09156 | 3096 ft | 209 kts | 179° |
| 2026-05-04 00:36 | 40.77532 | -74.08618 | 2663 ft | 213 kts | 160° |
| 2026-05-04 00:37 | 40.76708 | -74.07983 | 2604 ft | 200 kts | 149° |
| 2026-05-04 00:37 | 40.75694 | -74.06791 | 2529 ft | 192 kts | 139° |
| 2026-05-04 00:37 | 40.74618 | -74.05843 | 2279 ft | 182 kts | 162° |
| 2026-05-04 00:37 | 40.73421 | -74.05483 | 2019 ft | 173 kts | 183° |
| 2026-05-04 00:38 | 40.72259 | -74.05671 | 1788 ft | 165 kts | 203° |
| 2026-05-04 00:38 | 40.71310 | -74.06257 | 1566 ft | 138 kts | 221° |
| 2026-05-04 00:38 | 40.70628 | -74.07041 | 1382 ft | 124 kts | 235° |
| 2026-05-04 00:38 | 40.70156 | -74.07960 | 1219 ft | 119 kts | 248° |
| 2026-05-04 00:39 | 40.69873 | -74.08968 | 1031 ft | 117 kts | 259° |
| 2026-05-04 00:39 | 40.69767 | -74.10035 | 869 ft | 118 kts | 270° |
| 2026-05-04 00:39 | 40.69831 | -74.11111 | 715 ft | 118 kts | 276° |
| 2026-05-04 00:39 | 40.69889 | -74.12189 | 578 ft | 118 kts | 275° |
| 2026-05-04 00:40 | 40.69975 | -74.13259 | 425 ft | 117 kts | 274° |
| 2026-05-04 00:40 | 40.70041 | -74.14331 | 271 ft | 118 kts | 272° |
| 2026-05-04 00:40 | 40.70107 | -74.15411 | 98 ft | 117 kts | 274° |
| 2026-05-04 00:40 | 40.70174 | -74.16428 | 24 ft | 99 kts | 275° |
| 2026-05-04 00:41 | 40.70224 | -74.17199 | 23 ft | 68 kts | 275° |
| 2026-05-04 00:41 | 40.70257 | -74.17704 | 23 ft | 43 kts | 275° |
| 2026-05-04 00:41 | 40.70275 | -74.17954 | 22 ft | 21 kts | 275° |
| 2026-05-04 00:41 | 40.70231 | -74.18061 | 22 ft | 17 kts | 199° |
| 2026-05-04 00:42 | 40.70156 | -74.17967 | 22 ft | 19 kts | 93° |
| 2026-05-04 00:42 | 40.70152 | -74.17782 | 22 ft | 19 kts | 95° |
| 2026-05-04 00:42 | 40.70145 | -74.17694 | 24 ft | 10 kts | 95° |
| 2026-05-04 00:42 | 40.70139 | -74.17588 | 22 ft | 13 kts | 94° |
| 2026-05-04 00:43 | 40.70130 | -74.17461 | 23 ft | 15 kts | 95° |
| 2026-05-04 00:43 | 40.70125 | -74.17386 | 23 ft | 4 kts | 95° |
| 2026-05-04 00:43 | 40.70098 | -74.17368 | 22 ft | 7 kts | 168° |
| 2026-05-04 00:43 | 40.70039 | -74.17372 | 22 ft | 10 kts | 185° |
| 2026-05-04 00:44 | 40.69955 | -74.17382 | 22 ft | 14 kts | 186° |
| 2026-05-04 00:44 | 40.69868 | -74.17377 | 22 ft | 13 kts | 154° |
| 2026-05-04 00:44 | 40.69804 | -74.17284 | 22 ft | 14 kts | 133° |
| 2026-05-04 00:44 | 40.69739 | -74.17208 | 22 ft | 11 kts | 141° |
| 2026-05-04 00:45 | 40.69666 | -74.17145 | 22 ft | 14 kts | 151° |
| 2026-05-04 00:45 | 40.69566 | -74.17096 | 22 ft | 17 kts | 163° |
| 2026-05-04 00:45 | 40.69492 | -74.17072 | 22 ft | 8 kts | 173° |
| 2026-05-04 00:45 | 40.69421 | -74.17070 | 22 ft | 12 kts | 178° |
| 2026-05-04 00:46 | 40.69329 | -74.17089 | 22 ft | 15 kts | 204° |
| 2026-05-04 00:46 | 40.69293 | -74.17111 | 22 ft | 4 kts | 206° |
| 2026-05-04 00:46 | 40.69255 | -74.17136 | 23 ft | 8 kts | 207° |
| 2026-05-04 00:46 | 40.69194 | -74.17173 | 22 ft | 11 kts | 203° |
| 2026-05-04 00:47 | 40.69111 | -74.17225 | 23 ft | 15 kts | 208° |
| 2026-05-04 00:47 | 40.69016 | -74.17287 | 22 ft | 16 kts | 205° |
| 2026-05-04 00:47 | 40.68938 | -74.17339 | 22 ft | 8 kts | 217° |
| 2026-05-04 00:47 | 40.68914 | -74.17406 | 22 ft | 9 kts | 253° |
| 2026-05-04 00:48 | 40.68894 | -74.17492 | 22 ft | 9 kts | 252° |
| 2026-05-04 00:48 | 40.68878 | -74.17583 | 22 ft | 6 kts | 278° |
| 2026-05-04 00:48 | 40.68898 | -74.17641 | 22 ft | 7 kts | 301° |
| 2026-05-04 00:48 | 40.68926 | -74.17664 | 22 ft | 2 kts | 24° |
| 2026-05-04 00:49 | 40.68934 | -74.17641 | 22 ft | 3 kts | 67° |
| 2026-05-04 00:49 | 40.68938 | -74.17604 | 22 ft | 2 kts | 85° |
| 2026-05-04 00:49 | 40.68943 | -74.17591 | 22 ft | 3 kts | 65° |
| 2026-05-04 00:49 | 40.68944 | -74.17587 | 22 ft | 0 kts | 66° |